createdAt,value
2022-10-28T00:01:09.395Z,100.00
2022-10-28T00:03:39.429Z,100.00
2022-10-28T00:06:10.027Z,100.00
2022-10-28T00:08:39.977Z,100.00
2022-10-28T00:11:11.800Z,100.00
2022-10-28T00:13:41.053Z,100.00
2022-10-28T00:16:12.037Z,100.00
2022-10-28T00:18:40.784Z,100.00
2022-10-28T00:21:10.633Z,100.00
2022-10-28T00:23:40.900Z,100.00
2022-10-28T00:26:10.733Z,100.00
2022-10-28T00:28:42.270Z,100.00
2022-10-28T00:31:12.810Z,100.00
2022-10-28T00:33:41.003Z,100.00
2022-10-28T00:36:15.506Z,100.00
2022-10-28T00:38:46.612Z,100.00
2022-10-28T00:41:18.065Z,100.00
2022-10-28T00:43:48.236Z,100.00
2022-10-28T00:46:20.914Z,100.00
2022-10-28T00:48:53.217Z,100.00
2022-10-28T00:51:23.902Z,100.00
2022-10-28T00:53:56.369Z,100.00
2022-10-28T00:56:27.498Z,100.00
2022-10-28T00:59:00.727Z,100.00
2022-10-28T01:01:29.189Z,100.00
2022-10-28T01:03:58.187Z,100.00
2022-10-28T01:06:28.294Z,100.00
2022-10-28T01:09:00.072Z,100.00
2022-10-28T01:11:41.365Z,100.00
2022-10-28T01:14:24.498Z,100.00
2022-10-28T01:17:09.399Z,100.00
2022-10-28T01:19:59.453Z,100.00
2022-10-28T01:22:33.363Z,100.00
2022-10-28T01:25:58.898Z,100.00
2022-10-28T01:28:51.718Z,100.00
2022-10-28T01:31:40.545Z,100.00
2022-10-28T01:34:16.569Z,100.00
2022-10-28T01:36:55.657Z,100.00
2022-10-28T01:39:32.205Z,100.00
2022-10-28T01:42:12.825Z,100.00
2022-10-28T01:44:49.459Z,100.00
2022-10-28T01:47:23.725Z,100.00
2022-10-28T01:49:57.049Z,100.00
2022-10-28T01:52:30.165Z,100.00
2022-10-28T01:55:03.905Z,100.00
2022-10-28T01:57:34.580Z,100.00
2022-10-28T02:00:03.536Z,100.00
2022-10-28T02:02:42.724Z,100.00
2022-10-28T02:05:38.362Z,100.00
2022-10-28T02:08:24.321Z,100.00
2022-10-28T02:11:05.073Z,100.00
2022-10-28T02:13:44.031Z,100.00
2022-10-28T02:16:21.432Z,100.00
2022-10-28T02:19:01.052Z,100.00
2022-10-28T02:21:37.808Z,100.00
2022-10-28T02:24:17.138Z,100.00
2022-10-28T02:26:53.707Z,100.00
2022-10-28T02:29:31.102Z,100.00
2022-10-28T02:32:03.179Z,100.00
2022-10-28T02:34:37.524Z,100.00
2022-10-28T02:37:09.682Z,100.00
2022-10-28T02:39:41.927Z,100.00
2022-10-28T02:42:15.848Z,100.00
2022-10-28T02:44:49.631Z,100.00
2022-10-28T02:47:21.821Z,100.00
2022-10-28T02:49:56.909Z,100.00
2022-10-28T02:52:28.529Z,100.00
2022-10-28T02:54:59.096Z,100.00
2022-10-28T02:57:30.087Z,100.00
2022-10-28T03:00:00.141Z,100.00
2022-10-28T03:02:29.177Z,100.00
2022-10-28T03:04:58.820Z,100.00
2022-10-28T03:07:26.973Z,100.00
2022-10-28T03:09:55.089Z,100.00
2022-10-28T03:12:23.278Z,100.00
2022-10-28T03:14:51.420Z,100.00
2022-10-28T03:17:19.560Z,100.00
2022-10-28T03:19:47.796Z,100.00
2022-10-28T03:22:17.753Z,100.00
2022-10-28T03:24:45.891Z,100.00
2022-10-28T03:27:14.065Z,100.00
2022-10-28T03:29:45.009Z,100.00
2022-10-28T03:32:14.511Z,100.00
2022-10-28T03:34:42.936Z,100.00
2022-10-28T03:37:11.248Z,100.00
2022-10-28T03:39:40.807Z,100.00
2022-10-28T03:42:09.017Z,100.00
2022-10-28T03:44:37.203Z,100.00
2022-10-28T03:47:05.494Z,100.00
2022-10-28T03:49:33.613Z,100.00
2022-10-28T03:52:01.741Z,100.00
2022-10-28T03:54:30.196Z,100.00
2022-10-28T03:56:59.689Z,100.00
2022-10-28T03:59:27.794Z,100.00
2022-10-28T04:01:56.017Z,100.00
2022-10-28T04:04:28.335Z,100.00
2022-10-28T04:06:58.916Z,100.00
2022-10-28T04:09:27.044Z,100.00
2022-10-28T04:11:55.259Z,100.00
2022-10-28T04:14:24.836Z,100.00
2022-10-28T04:16:52.990Z,100.00
2022-10-28T04:19:21.261Z,100.00
2022-10-28T04:21:49.480Z,100.00
2022-10-28T04:24:17.847Z,100.00
2022-10-28T04:26:45.976Z,100.00
2022-10-28T04:29:14.094Z,100.00
2022-10-28T04:31:43.610Z,100.00
2022-10-28T04:34:12.465Z,100.00
2022-10-28T04:36:40.584Z,100.00
2022-10-28T04:39:10.335Z,100.00
2022-10-28T04:41:38.442Z,100.00
2022-10-28T04:44:06.562Z,100.00
2022-10-28T04:46:34.742Z,100.00
2022-10-28T04:49:04.784Z,100.00
2022-10-28T04:51:32.896Z,100.00
2022-10-28T04:54:01.013Z,100.00
2022-10-28T04:56:31.011Z,100.00
2022-10-28T04:58:59.131Z,100.00
2022-10-28T05:01:27.535Z,100.00
2022-10-28T05:03:55.725Z,100.00
2022-10-28T05:06:25.304Z,100.00
2022-10-28T05:08:53.419Z,100.00
2022-10-28T05:11:21.556Z,100.00
2022-10-28T05:13:49.759Z,100.00
2022-10-28T05:16:17.894Z,100.00
2022-10-28T05:18:46.017Z,100.00
2022-10-28T05:21:14.159Z,100.00
2022-10-28T05:23:43.599Z,100.00
2022-10-28T05:26:12.018Z,100.00
2022-10-28T05:28:40.244Z,100.00
2022-10-28T05:31:08.448Z,100.00
2022-10-28T05:33:36.589Z,100.00
2022-10-28T05:36:05.197Z,100.00
2022-10-28T05:38:33.282Z,100.00
2022-10-28T05:41:03.448Z,100.00
2022-10-28T05:43:31.526Z,100.00
2022-10-28T05:45:59.645Z,100.00
2022-10-28T05:48:27.761Z,100.00
2022-10-28T05:50:55.895Z,100.00
2022-10-28T05:53:24.078Z,100.00
2022-10-28T05:55:52.204Z,100.00
2022-10-28T05:58:21.677Z,100.00
2022-10-28T06:00:49.997Z,100.00
2022-10-28T06:03:18.573Z,100.00
2022-10-28T06:05:47.017Z,100.00
2022-10-28T06:08:15.299Z,100.00
2022-10-28T06:10:56.472Z,100.00
2022-10-28T06:13:25.933Z,100.00
2022-10-28T06:15:54.917Z,100.00
2022-10-28T06:18:23.644Z,100.00
2022-10-28T06:20:53.495Z,100.00
2022-10-28T06:23:22.167Z,100.00
2022-10-28T06:25:50.833Z,100.00
2022-10-28T06:28:19.510Z,100.00
2022-10-28T06:30:49.356Z,100.00
2022-10-28T06:33:17.489Z,100.00
2022-10-28T06:35:46.117Z,100.00
2022-10-28T06:38:14.291Z,100.00
2022-10-28T06:40:42.418Z,100.00
2022-10-28T06:43:11.971Z,100.00
2022-10-28T06:45:40.299Z,100.00
2022-10-28T06:48:12.262Z,100.00
2022-10-28T06:50:40.809Z,100.00
2022-10-28T06:53:10.207Z,100.00
2022-10-28T06:55:38.353Z,100.00
2022-10-28T06:58:06.894Z,100.00
2022-10-28T07:00:35.120Z,100.00
2022-10-28T07:03:03.330Z,100.00
2022-10-28T07:05:33.055Z,100.00
2022-10-28T07:08:01.266Z,100.00
2022-10-28T07:10:29.443Z,100.00
2022-10-28T07:12:57.982Z,100.00
2022-10-28T07:15:26.247Z,100.00
2022-10-28T07:17:54.788Z,100.00
2022-10-28T07:20:24.225Z,100.00
2022-10-28T07:22:59.315Z,100.00
2022-10-28T07:25:28.253Z,100.00
2022-10-28T07:27:58.085Z,100.00
2022-10-28T07:30:26.574Z,100.00
2022-10-28T07:32:54.971Z,100.00
2022-10-28T07:35:23.305Z,100.00
2022-10-28T07:37:51.453Z,100.00
2022-10-28T07:40:21.031Z,100.00
2022-10-28T07:42:49.221Z,100.00
2022-10-28T07:45:18.097Z,100.00
2022-10-28T07:47:46.297Z,100.00
2022-10-28T07:50:14.780Z,100.00
2022-10-28T07:52:43.026Z,100.00
2022-10-28T07:55:12.107Z,100.00
2022-10-28T07:57:41.927Z,100.00
2022-10-28T08:00:11.028Z,100.00
2022-10-28T08:02:39.653Z,100.00
2022-10-28T08:05:08.449Z,100.00
2022-10-28T08:07:38.625Z,100.00
2022-10-28T08:10:08.325Z,100.00
2022-10-28T08:12:36.455Z,100.00
2022-10-28T08:15:09.491Z,100.00
2022-10-28T08:17:37.641Z,100.00
2022-10-28T08:20:06.774Z,100.00
2022-10-28T08:22:34.938Z,100.00
2022-10-28T08:25:03.116Z,100.00
2022-10-28T08:27:31.716Z,100.00
2022-10-28T08:29:59.848Z,100.00
2022-10-28T08:32:29.556Z,100.00
2022-10-28T08:34:57.669Z,98.64
2022-10-28T08:37:26.044Z,98.10
2022-10-28T08:39:54.197Z,97.52
2022-10-28T08:42:34.504Z,97.18
2022-10-28T08:45:16.570Z,96.67
2022-10-28T08:47:55.099Z,96.57
2022-10-28T08:50:26.005Z,96.67
2022-10-28T08:52:57.999Z,96.34
2022-10-28T08:55:30.111Z,95.81
2022-10-28T08:58:03.691Z,95.59
2022-10-28T09:00:34.391Z,95.05
2022-10-28T09:03:16.189Z,93.89
2022-10-28T09:05:47.881Z,93.58
2022-10-28T09:08:22.519Z,93.31
2022-10-28T09:11:21.302Z,92.61
2022-10-28T09:14:12.635Z,91.11
2022-10-28T09:16:47.750Z,89.15
2022-10-28T09:19:31.268Z,90.11
2022-10-28T09:22:10.067Z,89.66
2022-10-28T09:24:46.288Z,88.29
2022-10-28T09:27:38.344Z,87.92
2022-10-28T09:30:19.687Z,88.17
2022-10-28T09:32:57.499Z,88.59
2022-10-28T09:35:31.763Z,88.41
2022-10-28T09:38:06.788Z,89.16
2022-10-28T09:40:37.641Z,88.86
2022-10-28T09:43:10.762Z,90.16
2022-10-28T09:45:44.556Z,90.41
2022-10-28T09:48:21.053Z,88.97
2022-10-28T09:50:53.081Z,86.95
2022-10-28T09:53:35.074Z,85.72
2022-10-28T09:56:06.295Z,84.51
2022-10-28T09:58:35.302Z,84.80
2022-10-28T10:01:05.111Z,84.37
2022-10-28T10:03:33.874Z,84.78
2022-10-28T10:06:12.432Z,84.72
2022-10-28T10:08:41.736Z,83.77
2022-10-28T10:11:23.475Z,83.49
2022-10-28T10:13:53.571Z,83.93
2022-10-28T10:16:26.004Z,83.73
2022-10-28T10:18:59.177Z,83.53
2022-10-28T10:21:44.365Z,84.67
2022-10-28T10:24:24.322Z,83.43
2022-10-28T10:26:53.394Z,82.53
2022-10-28T10:29:22.767Z,82.64
2022-10-28T10:32:05.437Z,81.73
2022-10-28T10:34:34.725Z,82.22
2022-10-28T10:37:05.114Z,81.81
2022-10-28T10:39:38.405Z,82.22
2022-10-28T10:42:17.480Z,81.80
2022-10-28T10:44:46.276Z,81.22
2022-10-28T10:47:20.733Z,81.41
2022-10-28T10:49:49.810Z,80.56
2022-10-28T10:52:23.731Z,81.01
2022-10-28T10:55:02.586Z,81.46
2022-10-28T10:57:31.720Z,81.09
2022-10-28T11:00:00.668Z,80.36
2022-10-28T11:02:34.629Z,80.03
2022-10-28T11:05:06.078Z,79.67
2022-10-28T11:07:37.367Z,79.63
2022-10-28T11:10:06.917Z,79.12
2022-10-28T11:12:37.814Z,78.71
2022-10-28T11:15:22.416Z,77.25
2022-10-28T11:17:56.654Z,77.58
2022-10-28T11:20:29.863Z,77.66
2022-10-28T11:23:15.143Z,78.31
2022-10-28T11:25:45.561Z,78.65
2022-10-28T11:28:34.890Z,78.87
2022-10-28T11:31:19.379Z,79.34
2022-10-28T11:34:01.327Z,78.48
2022-10-28T11:36:35.973Z,78.75
2022-10-28T11:39:20.414Z,78.30
2022-10-28T11:42:01.811Z,77.08
2022-10-28T11:47:32.222Z,77.04
2022-10-28T11:50:14.834Z,78.28
2022-10-28T11:52:58.445Z,79.20
2022-10-28T11:55:36.892Z,78.00
2022-10-28T11:58:16.779Z,77.98
2022-10-28T12:00:56.697Z,78.50
2022-10-28T12:04:04.348Z,78.13
2022-10-28T12:06:48.892Z,77.33
2022-10-28T12:09:25.831Z,76.71
2022-10-28T12:12:07.646Z,76.53
2022-10-28T12:14:45.350Z,75.84
2022-10-28T12:17:40.310Z,76.00
2022-10-28T12:20:15.199Z,75.00
2022-10-28T12:22:49.265Z,75.38
2022-10-28T12:25:23.923Z,75.12
2022-10-28T12:27:58.819Z,75.17
2022-10-28T12:30:30.066Z,75.59
2022-10-28T12:33:02.264Z,75.56
2022-10-28T12:35:33.922Z,75.97
2022-10-28T12:38:08.632Z,76.07
2022-10-28T12:40:41.502Z,75.85
2022-10-28T12:43:17.184Z,76.30
2022-10-28T12:45:49.219Z,76.44
2022-10-28T12:48:24.987Z,76.90
2022-10-28T12:50:57.678Z,77.03
2022-10-28T12:53:35.445Z,75.94
2022-10-28T12:56:10.433Z,76.28
2022-10-28T12:58:54.683Z,76.07
2022-10-28T13:01:28.397Z,75.55
2022-10-28T13:03:56.678Z,75.42
2022-10-28T13:06:53.979Z,75.41
2022-10-28T13:09:51.341Z,75.54
2022-10-28T13:12:51.829Z,75.39
2022-10-28T13:15:42.459Z,76.20
2022-10-28T13:18:33.528Z,76.73
2022-10-28T13:21:08.582Z,76.18
2022-10-28T13:23:41.681Z,76.71
2022-10-28T13:26:22.087Z,76.52
2022-10-28T13:28:53.576Z,76.01
2022-10-28T13:31:23.482Z,75.83
2022-10-28T13:33:55.707Z,75.51
2022-10-28T13:36:28.075Z,75.92
2022-10-28T13:38:59.922Z,75.30
2022-10-28T13:41:35.230Z,75.32
2022-10-28T13:44:26.002Z,75.44
2022-10-28T13:47:04.724Z,75.24
2022-10-28T13:49:33.942Z,76.29
2022-10-28T13:52:04.117Z,76.74
2022-10-28T13:54:34.492Z,76.01
2022-10-28T13:57:07.050Z,75.34
2022-10-28T13:59:51.387Z,75.46
2022-10-28T14:02:35.274Z,75.44
2022-10-28T14:05:07.745Z,76.40
2022-10-28T14:07:37.580Z,77.29
2022-10-28T14:10:21.996Z,76.57
2022-10-28T14:12:54.132Z,76.88
2022-10-28T14:15:26.375Z,78.25
2022-10-28T14:18:15.851Z,78.84
2022-10-28T14:21:01.528Z,78.89
2022-10-28T14:24:10.346Z,79.73
2022-10-28T14:27:30.622Z,79.53
2022-10-28T14:30:29.191Z,80.62
2022-10-28T14:33:21.111Z,80.64
2022-10-28T14:35:55.393Z,81.31
2022-10-28T14:38:48.341Z,81.26
2022-10-28T14:41:27.559Z,81.76
2022-10-28T14:44:06.240Z,82.45
2022-10-28T14:46:51.199Z,82.38
2022-10-28T14:49:24.273Z,81.76
2022-10-28T14:51:54.261Z,81.15
2022-10-28T14:54:36.588Z,81.47
2022-10-28T14:57:09.107Z,82.31
2022-10-28T14:59:39.014Z,82.76
2022-10-28T15:02:15.121Z,82.61
2022-10-28T15:04:47.239Z,82.54
2022-10-28T15:07:17.354Z,82.69
2022-10-28T15:09:48.780Z,83.70
2022-10-28T15:12:18.695Z,84.02
2022-10-28T15:14:50.727Z,83.88
2022-10-28T15:17:21.649Z,83.87
2022-10-28T15:19:52.860Z,84.77
2022-10-28T15:22:22.721Z,85.92
2022-10-28T15:24:59.202Z,86.65
2022-10-28T15:27:30.211Z,87.07
2022-10-28T15:29:58.582Z,87.91
2022-10-28T15:32:34.857Z,88.34
2022-10-28T15:35:40.555Z,89.61
2022-10-28T15:38:36.178Z,90.49
2022-10-28T15:41:41.527Z,91.54
2022-10-28T15:44:26.119Z,92.20
2022-10-28T15:46:55.217Z,92.72
2022-10-28T15:49:36.210Z,92.56
2022-10-28T15:52:33.162Z,92.69
2022-10-28T15:55:03.343Z,93.44
2022-10-28T15:57:48.306Z,94.35
2022-10-28T16:00:23.095Z,95.03
2022-10-28T16:02:56.273Z,95.88
2022-10-28T16:05:56.487Z,97.20
2022-10-28T16:08:29.653Z,97.58
2022-10-28T16:11:01.049Z,97.92
2022-10-28T16:13:33.613Z,98.64
2022-10-28T16:16:06.650Z,99.16
2022-10-28T16:18:41.259Z,99.31
2022-10-28T16:21:09.984Z,99.81
2022-10-28T16:23:43.865Z,100.00
2022-10-28T16:26:13.372Z,100.00
2022-10-28T16:28:45.244Z,100.00
2022-10-28T16:31:16.366Z,100.00
2022-10-28T16:33:44.807Z,100.00
2022-10-28T16:36:13.120Z,100.00
2022-10-28T16:38:42.569Z,100.00
2022-10-28T16:41:16.275Z,100.00
2022-10-28T16:43:44.503Z,100.00
2022-10-28T16:46:13.766Z,100.00
2022-10-28T16:48:42.191Z,100.00
2022-10-28T16:51:14.820Z,100.00
2022-10-28T16:53:47.133Z,100.00
2022-10-28T16:56:15.755Z,100.00
2022-10-28T16:58:45.409Z,100.00
2022-10-28T17:01:19.604Z,100.00
2022-10-28T17:03:48.252Z,100.00
2022-10-28T17:06:16.783Z,100.00
2022-10-28T17:09:03.193Z,100.00
2022-10-28T17:14:05.572Z,100.00
2022-10-28T17:16:35.182Z,100.00
2022-10-28T17:19:05.451Z,100.00
2022-10-28T17:21:33.715Z,100.00
2022-10-28T17:24:05.348Z,100.00
2022-10-28T17:26:33.569Z,100.00
2022-10-28T17:29:02.085Z,100.00
2022-10-28T17:31:30.553Z,100.00
2022-10-28T17:33:58.843Z,100.00
2022-10-28T17:36:26.965Z,100.00
2022-10-28T17:38:55.351Z,100.00
2022-10-28T17:41:24.929Z,100.00
2022-10-28T17:43:54.090Z,100.00
2022-10-28T17:46:22.767Z,100.00
2022-10-28T17:48:50.927Z,100.00
2022-10-28T17:51:21.010Z,100.00
2022-10-28T17:53:54.455Z,100.00
2022-10-28T17:56:22.930Z,100.00
2022-10-28T17:58:54.760Z,100.00
2022-10-28T18:01:23.023Z,100.00
2022-10-28T18:03:51.923Z,100.00
2022-10-28T18:06:20.092Z,100.00
2022-10-28T18:08:48.360Z,100.00
2022-10-28T18:11:19.596Z,100.00
2022-10-28T18:13:49.998Z,100.00
2022-10-28T18:16:21.153Z,100.00
2022-10-28T18:18:49.327Z,100.00
2022-10-28T18:21:17.666Z,100.00
2022-10-28T18:23:46.181Z,100.00
2022-10-28T18:26:15.556Z,100.00
2022-10-28T18:28:45.645Z,100.00
2022-10-28T18:31:15.516Z,100.00
2022-10-28T18:33:46.163Z,100.00
2022-10-28T18:36:16.348Z,100.00
2022-10-28T18:38:44.886Z,100.00
2022-10-28T18:41:15.196Z,100.00
2022-10-28T18:43:43.549Z,100.00
2022-10-28T18:46:13.143Z,100.00
2022-10-28T18:48:42.020Z,100.00
2022-10-28T18:51:13.571Z,100.00
2022-10-28T18:53:43.987Z,100.00
2022-10-28T18:56:14.684Z,100.00
2022-10-28T18:58:43.648Z,100.00
2022-10-28T19:01:13.796Z,100.00
2022-10-28T19:03:44.165Z,100.00
2022-10-28T19:06:15.818Z,100.00
2022-10-28T19:08:44.909Z,100.00
2022-10-28T19:11:14.455Z,100.00
2022-10-28T19:13:44.016Z,100.00
2022-10-28T19:18:45.395Z,100.00
2022-10-28T19:21:16.793Z,100.00
2022-10-28T19:23:45.146Z,100.00
2022-10-28T19:26:13.685Z,100.00
2022-10-28T19:28:44.409Z,100.00
2022-10-28T19:31:14.554Z,100.00
2022-10-28T19:33:43.377Z,100.00
2022-10-28T19:36:17.471Z,100.00
2022-10-28T19:38:46.612Z,100.00
2022-10-28T19:41:16.606Z,100.00
2022-10-28T19:43:45.243Z,100.00
2022-10-28T19:46:15.646Z,100.00
2022-10-28T19:48:45.939Z,100.00
2022-10-28T19:51:17.323Z,100.00
2022-10-28T19:53:48.253Z,100.00
2022-10-28T19:56:19.004Z,100.00
2022-10-28T19:58:49.549Z,100.00
2022-10-28T20:01:18.280Z,100.00
2022-10-28T20:03:49.438Z,100.00
2022-10-28T20:06:20.844Z,100.00
2022-10-28T20:08:50.199Z,100.00
2022-10-28T20:11:24.873Z,100.00
2022-10-28T20:13:56.278Z,100.00
2022-10-28T20:16:25.508Z,100.00
2022-10-28T20:18:54.488Z,100.00
2022-10-28T20:21:25.567Z,100.00
2022-10-28T20:23:55.803Z,100.00
2022-10-28T20:26:26.217Z,100.00
2022-10-28T20:28:55.360Z,100.00
2022-10-28T20:31:27.509Z,100.00
2022-10-28T20:33:57.730Z,100.00
2022-10-28T20:36:29.041Z,100.00
2022-10-28T20:39:01.881Z,100.00
2022-10-28T20:41:31.911Z,100.00
2022-10-28T20:44:00.563Z,100.00
2022-10-28T20:46:28.900Z,100.00
2022-10-28T20:48:56.986Z,100.00
2022-10-28T20:51:28.319Z,100.00
2022-10-28T20:53:56.934Z,100.00
2022-10-28T20:56:26.812Z,100.00
2022-10-28T20:58:56.278Z,100.00
2022-10-28T21:01:27.335Z,100.00
2022-10-28T21:03:56.596Z,100.00
2022-10-28T21:06:25.875Z,100.00
2022-10-28T21:08:56.486Z,100.00
2022-10-28T21:11:26.049Z,100.00
2022-10-28T21:13:55.442Z,100.00
2022-10-28T21:16:24.494Z,100.00
2022-10-28T21:18:53.135Z,100.00
2022-10-28T21:21:22.394Z,100.00
2022-10-28T21:23:50.741Z,100.00
2022-10-28T21:26:20.300Z,100.00
2022-10-28T21:28:50.003Z,100.00
2022-10-28T21:31:19.154Z,100.00
2022-10-28T21:33:47.549Z,100.00
2022-10-28T21:36:17.426Z,100.00
2022-10-28T21:38:46.305Z,100.00
2022-10-28T21:41:16.821Z,100.00
2022-10-28T21:43:48.156Z,100.00
2022-10-28T21:46:17.109Z,100.00
2022-10-28T21:48:45.746Z,100.00
2022-10-28T21:51:15.722Z,100.00
2022-10-28T21:53:45.215Z,100.00
2022-10-28T21:56:17.619Z,100.00
2022-10-28T21:58:49.391Z,100.00
2022-10-28T22:01:19.902Z,100.00
2022-10-28T22:03:48.413Z,100.00
2022-10-28T22:06:16.809Z,100.00
2022-10-28T22:08:45.321Z,100.00
2022-10-28T22:11:15.982Z,100.00
2022-10-28T22:13:45.403Z,100.00
2022-10-28T22:16:17.682Z,100.00
2022-10-28T22:18:46.682Z,100.00
2022-10-28T22:21:16.691Z,100.00
2022-10-28T22:23:45.004Z,100.00
2022-10-28T22:26:15.679Z,100.00
2022-10-28T22:28:44.263Z,100.00
2022-10-28T22:31:14.422Z,100.00
2022-10-28T22:33:44.023Z,100.00
2022-10-28T22:36:14.481Z,100.00
2022-10-28T22:38:43.058Z,100.00
2022-10-28T22:41:13.995Z,100.00
2022-10-28T22:43:43.581Z,100.00
2022-10-28T22:46:13.291Z,100.00
2022-10-28T22:48:42.356Z,100.00
2022-10-28T22:51:12.636Z,100.00
2022-10-28T22:53:41.559Z,100.00
2022-10-28T22:56:14.179Z,100.00
2022-10-28T22:58:42.383Z,100.00
2022-10-28T23:01:12.773Z,100.00
2022-10-28T23:03:42.727Z,100.00
2022-10-28T23:06:13.386Z,100.00
2022-10-28T23:08:42.910Z,100.00
2022-10-28T23:11:11.442Z,100.00
2022-10-28T23:13:39.839Z,100.00
2022-10-28T23:16:10.227Z,100.00
2022-10-28T23:18:38.549Z,100.00
2022-10-28T23:21:08.408Z,100.00
2022-10-28T23:23:37.915Z,100.00
2022-10-28T23:26:06.764Z,100.00
2022-10-28T23:28:34.879Z,100.00
2022-10-28T23:31:03.055Z,100.00
2022-10-28T23:33:32.652Z,100.00
2022-10-28T23:36:03.618Z,100.00
2022-10-28T23:38:32.160Z,100.00
2022-10-28T23:41:03.032Z,100.00
2022-10-28T23:43:32.468Z,100.00
2022-10-28T23:46:01.278Z,100.00
2022-10-28T23:48:29.938Z,100.00
2022-10-28T23:50:58.674Z,100.00
2022-10-28T23:55:57.490Z,100.00
2022-10-28T23:58:26.957Z,100.00
